createdAt,value
2018-09-10T00:00:31.540Z,25.87
2018-09-10T00:03:04.543Z,35.00
2018-09-10T00:05:37.478Z,24.57
2018-09-10T00:08:11.288Z,25.90
2018-09-10T00:10:43.951Z,17.90
2018-09-10T00:13:16.995Z,18.20
2018-09-10T00:15:49.921Z,30.17
2018-09-10T00:18:22.832Z,32.83
2018-09-10T00:20:55.808Z,18.93
2018-09-10T00:23:28.747Z,17.90
2018-09-10T00:26:02.464Z,26.67
2018-09-10T00:28:35.682Z,31.17
2018-09-10T00:34:29.886Z,54.43
2018-09-10T00:37:02.817Z,51.63
2018-09-10T00:39:35.365Z,43.47
2018-09-10T00:42:07.803Z,48.13
2018-09-10T00:44:41.511Z,46.07
2018-09-10T00:47:42.781Z,102.37
2018-09-10T00:50:16.803Z,64.50
2018-09-10T00:52:50.624Z,72.93
2018-09-10T00:55:23.879Z,89.17
2018-09-10T00:57:58.356Z,88.47
2018-09-10T01:00:31.745Z,58.60
2018-09-10T01:03:05.326Z,61.63
2018-09-10T01:05:39.121Z,53.90
2018-09-10T01:08:12.721Z,58.17
2018-09-10T01:10:47.663Z,64.70
2018-09-10T01:13:21.527Z,65.90
2018-09-10T01:15:56.662Z,63.90
2018-09-10T01:18:30.028Z,66.03
2018-09-10T01:21:04.849Z,76.20
2018-09-10T01:23:38.513Z,70.27
2018-09-10T01:26:12.542Z,65.37
2018-09-10T01:28:46.049Z,67.73
2018-09-10T01:31:19.473Z,71.57
2018-09-10T01:33:57.040Z,79.77
2018-09-10T01:36:31.633Z,82.37
2018-09-10T01:39:06.992Z,79.77
2018-09-10T01:41:40.561Z,76.87
2018-09-10T01:44:13.940Z,82.27
2018-09-10T01:46:47.351Z,83.97
2018-09-10T01:49:21.061Z,77.87
2018-09-10T01:51:56.032Z,76.93
2018-09-10T01:54:29.704Z,81.63
2018-09-10T01:57:03.420Z,81.37
2018-09-10T01:59:36.898Z,89.87
2018-09-10T02:02:10.509Z,89.57
2018-09-10T02:04:45.422Z,88.00
2018-09-10T02:07:20.008Z,69.40
2018-09-10T02:09:54.633Z,66.33
2018-09-10T02:12:28.346Z,77.03
2018-09-10T02:15:05.786Z,84.33
2018-09-10T02:17:42.150Z,77.07
2018-09-10T02:20:17.158Z,80.37
2018-09-10T02:22:51.028Z,84.47
2018-09-10T02:25:24.425Z,82.43
2018-09-10T02:27:58.027Z,68.90
2018-09-10T02:30:32.947Z,80.97
2018-09-10T02:33:17.814Z,71.90
2018-09-10T02:35:52.356Z,78.57
2018-09-10T02:38:26.381Z,70.33
2018-09-10T02:41:00.455Z,69.43
2018-09-10T02:43:33.817Z,63.27
2018-09-10T02:46:07.950Z,71.17
2018-09-10T02:48:41.975Z,68.97
2018-09-10T02:51:15.244Z,61.77
2018-09-10T02:53:49.593Z,71.40
2018-09-10T02:56:27.461Z,57.47
2018-09-10T02:59:01.069Z,69.17
2018-09-10T03:01:41.653Z,73.63
2018-09-10T03:04:23.873Z,79.97
2018-09-10T03:06:57.980Z,69.53
2018-09-10T03:09:31.546Z,63.57
2018-09-10T03:12:07.012Z,65.40
2018-09-10T03:14:39.915Z,64.80
2018-09-10T03:17:13.595Z,72.23
2018-09-10T03:19:49.216Z,76.73
2018-09-10T03:22:23.104Z,62.13
2018-09-10T03:24:56.861Z,62.37
2018-09-10T03:27:30.419Z,63.27
2018-09-10T03:30:04.096Z,55.53
2018-09-10T03:32:37.703Z,62.87
2018-09-10T03:35:42.123Z,211.53
2018-09-10T03:38:15.836Z,66.50
2018-09-10T03:40:51.424Z,58.23
2018-09-10T03:43:24.869Z,62.63
2018-09-10T03:45:58.678Z,74.33
2018-09-10T03:51:53.542Z,80.20
2018-09-10T03:57:53.442Z,80.20
2018-09-10T04:00:25.759Z,80.40
2018-09-10T04:02:58.015Z,77.10
2018-09-10T04:09:02.648Z,75.37
2018-09-10T04:11:35.959Z,65.17
2018-09-10T04:14:12.370Z,71.80
2018-09-10T04:16:45.669Z,86.10
2018-09-10T04:19:19.035Z,83.80
2018-09-10T04:21:51.775Z,85.27
2018-09-10T04:24:24.505Z,89.23
2018-09-10T04:26:58.048Z,96.63
2018-09-10T04:29:30.902Z,90.27
2018-09-10T04:35:36.449Z,80.73
2018-09-10T04:38:09.493Z,81.07
2018-09-10T04:40:44.189Z,75.97
2018-09-10T04:43:17.903Z,72.03
2018-09-10T04:45:51.614Z,80.77
2018-09-10T04:48:25.993Z,88.10
2018-09-10T04:51:01.926Z,75.37
2018-09-10T04:53:35.370Z,79.33
2018-09-10T04:56:08.782Z,78.10
2018-09-10T04:58:42.137Z,79.63
2018-09-10T05:01:15.549Z,91.00
2018-09-10T05:03:48.872Z,89.67
2018-09-10T05:06:22.393Z,108.77
2018-09-10T05:08:55.781Z,108.90
2018-09-10T05:11:29.392Z,107.17
2018-09-10T05:14:03.144Z,110.87
2018-09-10T05:16:36.360Z,111.10
2018-09-10T05:19:09.867Z,109.13
2018-09-10T05:21:46.432Z,101.80
2018-09-10T05:24:19.744Z,89.50
2018-09-10T05:26:52.906Z,94.00
2018-09-10T05:29:27.312Z,72.73
2018-09-10T05:32:00.817Z,87.50
2018-09-10T05:34:34.759Z,93.27
2018-09-10T05:37:07.973Z,90.23
2018-09-10T05:39:40.780Z,179.67
2018-09-10T05:42:13.705Z,91.87
2018-09-10T05:44:46.860Z,97.23
2018-09-10T05:47:20.557Z,90.07
2018-09-10T05:49:53.968Z,69.57
2018-09-10T05:52:26.916Z,80.27
2018-09-10T05:54:59.746Z,62.50
2018-09-10T05:57:32.604Z,72.40
2018-09-10T06:00:06.707Z,63.90
2018-09-10T06:02:41.249Z,59.57
2018-09-10T06:05:14.101Z,61.97
2018-09-10T06:07:47.801Z,63.50
2018-09-10T06:10:23.894Z,65.73
2018-09-10T06:12:57.317Z,87.00
2018-09-10T06:15:30.585Z,74.40
2018-09-10T06:18:03.604Z,76.60
2018-09-10T06:20:37.154Z,67.63
2018-09-10T06:26:40.254Z,72.83
2018-09-10T06:29:12.513Z,55.97
2018-09-10T06:31:45.412Z,61.53
2018-09-10T06:34:17.779Z,53.80
2018-09-10T06:36:50.029Z,50.20
2018-09-10T06:39:22.248Z,60.37
2018-09-10T06:45:16.244Z,54.10
2018-09-10T06:47:49.648Z,55.17
2018-09-10T06:50:23.406Z,63.53
2018-09-10T06:52:56.685Z,60.77
2018-09-10T06:55:29.157Z,69.37
2018-09-10T06:58:02.209Z,68.13
2018-09-10T07:00:34.921Z,75.03
2018-09-10T07:03:08.229Z,86.43
2018-09-10T07:05:41.262Z,67.30
2018-09-10T07:08:14.366Z,66.73
2018-09-10T07:10:47.496Z,59.63
2018-09-10T07:13:20.042Z,57.33
2018-09-10T07:19:13.675Z,43.87
2018-09-10T07:21:46.748Z,52.73
2018-09-10T07:24:18.959Z,41.23
2018-09-10T07:26:51.285Z,34.97
2018-09-10T07:29:24.058Z,27.20
2018-09-10T07:31:56.533Z,31.17
2018-09-10T07:34:30.369Z,30.10
2018-09-10T07:37:27.468Z,30.50
2018-09-10T07:40:00.579Z,32.20
2018-09-10T07:42:34.131Z,28.13
2018-09-10T07:48:27.549Z,29.03
2018-09-10T07:50:59.795Z,29.03
2018-09-10T07:53:31.947Z,20.33
2018-09-10T07:56:03.987Z,17.67
2018-09-10T07:58:36.271Z,21.93
2018-09-10T08:01:08.847Z,21.50
2018-09-10T08:03:41.129Z,21.43
2018-09-10T08:06:13.335Z,23.57
2018-09-10T08:08:45.338Z,23.60
2018-09-10T08:11:18.037Z,22.00
2018-09-10T08:13:50.701Z,23.57
2018-09-10T08:16:23.029Z,27.43
2018-09-10T08:18:55.142Z,28.97
2018-09-10T08:21:27.457Z,31.13
2018-09-10T08:23:59.970Z,34.53
2018-09-10T08:26:32.105Z,30.67
2018-09-10T08:29:04.143Z,29.07
2018-09-10T08:34:57.728Z,28.20
2018-09-10T08:37:30.691Z,31.23
2018-09-10T08:40:02.898Z,32.07
2018-09-10T08:42:35.353Z,26.37
2018-09-10T08:45:07.694Z,29.67
2018-09-10T08:47:40.035Z,24.13
2018-09-10T08:53:43.371Z,25.37
2018-09-10T08:56:16.413Z,25.70
2018-09-10T08:58:50.396Z,33.67
2018-09-10T09:04:45.099Z,28.40
2018-09-10T09:10:39.169Z,25.30
2018-09-10T09:13:12.724Z,26.87
2018-09-10T09:15:46.291Z,25.87
2018-09-10T09:18:19.175Z,26.80
2018-09-10T09:20:52.338Z,36.13
2018-09-10T09:23:25.570Z,104.90
2018-09-10T09:25:58.532Z,73.80
2018-09-10T09:28:32.264Z,76.53
2018-09-10T09:31:05.316Z,65.93
2018-09-10T09:33:38.965Z,69.73
2018-09-10T09:36:18.603Z,79.50
2018-09-10T09:38:56.430Z,53.10
2018-09-10T09:41:34.333Z,44.37
2018-09-10T09:44:12.315Z,68.40
2018-09-10T09:46:45.843Z,63.17
2018-09-10T09:49:24.087Z,318.60
2018-09-10T09:52:01.414Z,402.43
2018-09-10T09:54:37.109Z,502.73
2018-09-10T09:57:12.970Z,548.03
2018-09-10T09:59:46.094Z,352.97
2018-09-10T10:02:24.888Z,409.23
2018-09-10T10:04:57.775Z,456.73
2018-09-10T10:07:30.816Z,472.80
2018-09-10T10:10:03.682Z,449.63
2018-09-10T10:12:36.811Z,360.83
2018-09-10T10:15:09.852Z,344.13
2018-09-10T10:17:44.190Z,495.73
2018-09-10T10:20:17.311Z,394.17
2018-09-10T10:22:50.272Z,320.03
2018-09-10T10:25:23.585Z,276.03
2018-09-10T10:27:56.508Z,239.77
2018-09-10T10:30:29.520Z,160.83
2018-09-10T10:33:03.192Z,308.23
2018-09-10T10:35:36.092Z,260.97
2018-09-10T10:38:09.323Z,142.27
2018-09-10T10:40:42.267Z,271.70
2018-09-10T10:43:16.397Z,213.57
2018-09-10T10:45:49.929Z,126.70
2018-09-10T10:48:23.410Z,145.67
2018-09-10T10:50:56.314Z,100.80
2018-09-10T10:53:29.543Z,91.97
2018-09-10T10:56:02.527Z,83.83
2018-09-10T10:58:35.485Z,77.80
2018-09-10T11:01:08.412Z,79.10
2018-09-10T11:03:41.625Z,74.33
2018-09-10T11:06:15.421Z,61.77
2018-09-10T11:08:48.992Z,60.30
2018-09-10T11:11:23.389Z,64.40
2018-09-10T11:14:31.772Z,80.70
2018-09-10T11:17:04.895Z,124.13
2018-09-10T11:19:38.097Z,419.33
2018-09-10T11:22:11.148Z,649.03
2018-09-10T11:28:14.372Z,249.97
2018-09-10T11:30:46.985Z,154.90
2018-09-10T11:33:20.202Z,108.60
2018-09-10T11:35:52.700Z,145.23
2018-09-10T11:38:26.118Z,151.60
2018-09-10T11:40:58.667Z,178.87
2018-09-10T11:44:10.447Z,128.93
2018-09-10T11:46:43.428Z,112.90
2018-09-10T11:49:16.269Z,106.73
2018-09-10T11:51:48.967Z,91.27
2018-09-10T11:54:21.535Z,104.93
2018-09-10T11:56:54.181Z,98.80
2018-09-10T11:59:27.716Z,116.13
2018-09-10T12:02:00.346Z,111.07
2018-09-10T12:04:33.814Z,129.67
2018-09-10T12:07:06.752Z,133.73
2018-09-10T12:09:40.464Z,175.27
2018-09-10T12:12:13.429Z,273.80
2018-09-10T12:14:46.308Z,333.10
2018-09-10T12:17:19.840Z,304.93
2018-09-10T12:19:52.883Z,298.60
2018-09-10T12:22:25.499Z,287.47
2018-09-10T12:24:58.423Z,252.90
2018-09-10T12:27:31.539Z,299.83
2018-09-10T12:30:04.235Z,327.83
2018-09-10T12:32:36.769Z,304.30
2018-09-10T12:35:09.649Z,314.83
2018-09-10T12:37:42.986Z,433.37
2018-09-10T12:40:15.563Z,433.97
2018-09-10T12:42:49.026Z,495.10
2018-09-10T12:45:22.178Z,432.13
2018-09-10T12:47:59.972Z,355.23
2018-09-10T12:50:32.924Z,250.77
2018-09-10T12:53:06.673Z,208.80
2018-09-10T12:55:41.914Z,193.93
2018-09-10T12:58:14.529Z,178.93
2018-09-10T13:00:47.278Z,178.73
2018-09-10T13:03:20.504Z,143.13
2018-09-10T13:05:53.597Z,127.37
2018-09-10T13:08:27.189Z,106.53
2018-09-10T13:11:00.126Z,73.40
2018-09-10T13:13:33.517Z,51.33
2018-09-10T13:16:07.070Z,30.33
2018-09-10T13:18:49.976Z,39.20
2018-09-10T13:21:23.818Z,35.73
2018-09-10T13:23:56.528Z,19.03
2018-09-10T13:26:32.631Z,26.27
2018-09-10T13:29:05.108Z,22.57
2018-09-10T13:31:37.464Z,19.23
2018-09-10T13:34:09.963Z,20.53
2018-09-10T13:36:43.901Z,33.43
2018-09-10T13:39:16.275Z,30.30
2018-09-10T13:41:48.681Z,22.73
2018-09-10T13:44:21.297Z,17.50
2018-09-10T13:46:54.345Z,22.03
2018-09-10T13:49:27.181Z,11.60
2018-09-10T13:51:59.755Z,15.20
2018-09-10T13:54:32.681Z,21.17
2018-09-10T13:57:05.756Z,16.00
2018-09-10T13:59:38.139Z,22.60
2018-09-10T14:02:10.615Z,13.47
2018-09-10T14:04:43.001Z,15.03
2018-09-10T14:07:15.883Z,26.77
2018-09-10T14:09:48.249Z,19.87
2018-09-10T14:12:20.653Z,15.90
2018-09-10T14:14:53.099Z,18.57
2018-09-10T14:17:25.861Z,17.27
2018-09-10T14:19:59.477Z,15.07
2018-09-10T14:22:32.443Z,13.03
2018-09-10T14:25:05.209Z,11.37
2018-09-10T14:27:38.698Z,14.17
2018-09-10T14:30:12.140Z,15.87
2018-09-10T14:32:44.846Z,17.50
2018-09-10T14:35:17.620Z,16.40
2018-09-10T14:37:50.153Z,14.18
2018-09-10T14:40:23.386Z,7.03
2018-09-10T14:42:56.625Z,10.55
2018-09-10T14:45:29.016Z,7.83
2018-09-10T14:48:01.636Z,7.47
2018-09-10T14:50:35.000Z,6.58
2018-09-10T14:53:07.957Z,5.40
2018-09-10T14:55:42.845Z,9.58
2018-09-10T14:58:16.106Z,29.72
2018-09-10T15:00:49.109Z,20.15
2018-09-10T15:03:23.819Z,5.83
2018-09-10T15:05:57.267Z,8.28
2018-09-10T15:08:30.314Z,9.83
2018-09-10T15:11:03.174Z,19.27
2018-09-10T15:13:36.909Z,11.12
2018-09-10T15:16:09.667Z,11.95
2018-09-10T15:18:42.100Z,17.20
2018-09-10T15:21:15.181Z,13.85
2018-09-10T15:23:51.039Z,20.97
2018-09-10T15:26:23.624Z,17.37
2018-09-10T15:28:57.574Z,11.73
2018-09-10T15:31:30.725Z,15.60
2018-09-10T15:34:03.042Z,12.18
2018-09-10T15:36:36.511Z,10.63
2018-09-10T15:39:11.441Z,12.45
2018-09-10T15:41:44.361Z,5.28
2018-09-10T15:44:17.436Z,9.75
2018-09-10T15:46:51.442Z,15.32
2018-09-10T15:49:24.314Z,15.18
2018-09-10T15:51:58.547Z,17.48
2018-09-10T15:54:31.149Z,10.28
2018-09-10T15:57:04.470Z,12.50
2018-09-10T15:59:38.203Z,10.82
2018-09-10T16:02:10.276Z,7.28
2018-09-10T16:04:43.576Z,19.73
2018-09-10T16:07:16.193Z,11.12
2018-09-10T16:09:51.619Z,12.23
2018-09-10T16:12:24.036Z,13.72
2018-09-10T16:14:56.646Z,12.93
2018-09-10T16:17:29.189Z,10.25
2018-09-10T16:20:02.034Z,10.23
2018-09-10T16:22:35.925Z,12.28
2018-09-10T16:25:08.432Z,12.07
2018-09-10T16:27:43.542Z,16.62
2018-09-10T16:30:17.512Z,16.52
2018-09-10T16:32:50.586Z,14.23
2018-09-10T16:35:23.775Z,18.92
2018-09-10T16:37:56.462Z,11.12
2018-09-10T16:40:29.827Z,12.55
2018-09-10T16:43:02.318Z,20.65
2018-09-10T16:45:34.653Z,11.60
2018-09-10T16:48:08.140Z,17.60
2018-09-10T16:50:40.977Z,17.65
2018-09-10T16:53:13.401Z,16.52
2018-09-10T16:55:45.866Z,9.83
2018-09-10T16:58:18.360Z,18.98
2018-09-10T17:00:53.147Z,10.82
2018-09-10T17:03:28.380Z,12.15
2018-09-10T17:06:01.494Z,8.10
2018-09-10T17:08:33.989Z,9.40
2018-09-10T17:11:06.673Z,19.82
2018-09-10T17:13:55.318Z,12.00
2018-09-10T17:16:55.386Z,12.47
2018-09-10T17:19:35.242Z,10.68
2018-09-10T17:22:07.997Z,29.60
2018-09-10T17:24:42.055Z,15.18
2018-09-10T17:27:35.804Z,19.40
2018-09-10T17:30:16.349Z,12.65
2018-09-10T17:32:48.895Z,15.80
2018-09-10T17:35:21.180Z,11.80
2018-09-10T17:37:54.007Z,16.70
2018-09-10T17:40:26.623Z,38.98
2018-09-10T17:42:58.994Z,16.95
2018-09-10T17:45:32.953Z,16.93
2018-09-10T17:48:05.351Z,9.45
2018-09-10T17:50:42.090Z,9.15
2018-09-10T17:53:17.850Z,12.93
2018-09-10T17:55:51.200Z,19.48
2018-09-10T17:58:28.841Z,8.60
2018-09-10T18:01:09.204Z,20.32
2018-09-10T18:03:44.101Z,36.70
2018-09-10T18:06:24.350Z,11.73
2018-09-10T18:08:58.625Z,14.28
2018-09-10T18:11:30.953Z,16.85
2018-09-10T18:14:04.561Z,16.52
2018-09-10T18:16:36.950Z,21.37
2018-09-10T18:19:09.302Z,12.65
2018-09-10T18:21:42.985Z,12.53
2018-09-10T18:24:16.053Z,13.88
2018-09-10T18:26:49.531Z,14.98
2018-09-10T18:29:22.309Z,14.53
2018-09-10T18:31:55.286Z,12.50
2018-09-10T18:34:27.741Z,11.25
2018-09-10T18:37:00.908Z,12.55
2018-09-10T18:39:33.837Z,11.78
2018-09-10T18:42:06.264Z,17.70
2018-09-10T18:44:38.585Z,29.45
2018-09-10T18:47:11.268Z,29.50
2018-09-10T18:49:43.593Z,58.15
2018-09-10T18:52:18.592Z,34.45
2018-09-10T18:54:51.009Z,17.23
2018-09-10T18:57:23.585Z,13.98
2018-09-10T18:59:56.904Z,10.65
2018-09-10T19:02:29.679Z,107.10
2018-09-10T19:05:02.006Z,22.15
2018-09-10T19:07:34.433Z,20.55
2018-09-10T19:10:07.161Z,39.80
2018-09-10T19:12:40.125Z,14.75
2018-09-10T19:15:13.188Z,20.27
2018-09-10T19:17:45.695Z,15.90
2018-09-10T19:20:18.045Z,17.17
2018-09-10T19:22:50.611Z,24.90
2018-09-10T19:25:23.078Z,14.10
2018-09-10T19:27:55.844Z,18.17
2018-09-10T19:30:28.365Z,18.37
2018-09-10T19:33:01.077Z,24.72
2018-09-10T19:35:33.733Z,19.02
2018-09-10T19:38:06.205Z,20.75
2018-09-10T19:40:38.520Z,20.57
2018-09-10T19:43:10.826Z,21.52
2018-09-10T19:45:43.575Z,19.92
2018-09-10T19:48:16.451Z,14.68
2018-09-10T19:50:48.842Z,15.53
2018-09-10T19:53:21.545Z,17.05
2018-09-10T19:55:53.900Z,23.38
2018-09-10T19:58:26.268Z,15.40
2018-09-10T20:00:58.652Z,15.68
2018-09-10T20:03:31.544Z,15.00
2018-09-10T20:06:03.977Z,22.77
2018-09-10T20:08:36.535Z,22.55
2018-09-10T20:11:09.017Z,12.90
2018-09-10T20:13:42.123Z,15.90
2018-09-10T20:16:14.426Z,16.52
2018-09-10T20:18:46.933Z,17.62
2018-09-10T20:21:19.190Z,22.37
2018-09-10T20:23:51.569Z,21.37
2018-09-10T20:26:24.205Z,29.85
2018-09-10T20:28:56.678Z,26.60
2018-09-10T20:31:29.067Z,23.52
2018-09-10T20:34:05.883Z,23.30
2018-09-10T20:36:39.233Z,29.92
2018-09-10T20:39:14.556Z,39.10
2018-09-10T20:41:47.105Z,22.90
2018-09-10T20:44:24.366Z,23.95
2018-09-10T20:46:59.643Z,29.32
2018-09-10T20:49:34.376Z,36.00
2018-09-10T20:52:06.973Z,33.58
2018-09-10T20:54:42.060Z,31.02
2018-09-10T20:57:15.846Z,27.10
2018-09-10T20:59:49.008Z,22.87
2018-09-10T21:02:21.719Z,22.77
2018-09-10T21:04:56.846Z,28.90
2018-09-10T21:07:29.309Z,24.35
2018-09-10T21:10:02.520Z,34.63
2018-09-10T21:12:34.960Z,27.82
2018-09-10T21:15:08.581Z,37.42
2018-09-10T21:17:43.080Z,44.63
2018-09-10T21:20:17.550Z,36.33
2018-09-10T21:22:50.959Z,24.00
2018-09-10T21:25:23.518Z,33.13
2018-09-10T21:27:55.843Z,29.30
2018-09-10T21:30:28.487Z,37.67
2018-09-10T21:33:01.095Z,38.65
2018-09-10T21:35:34.159Z,38.65
2018-09-10T21:38:06.489Z,35.45
2018-09-10T21:40:40.606Z,38.48
2018-09-10T21:43:13.108Z,28.42
2018-09-10T21:45:45.902Z,30.15
2018-09-10T21:48:18.647Z,37.33
2018-09-10T21:50:51.760Z,28.45
2018-09-10T21:53:24.160Z,30.52
2018-09-10T21:55:57.135Z,42.67
2018-09-10T21:58:29.507Z,34.43
2018-09-10T22:01:02.940Z,32.60
2018-09-10T22:03:35.532Z,40.65
2018-09-10T22:06:07.849Z,32.88
2018-09-10T22:08:41.197Z,154.93
2018-09-10T22:11:13.628Z,60.05
2018-09-10T22:13:46.204Z,67.27
2018-09-10T22:16:19.277Z,42.60
2018-09-10T22:18:52.761Z,55.48
2018-09-10T22:21:27.469Z,31.02
2018-09-10T22:23:59.944Z,30.20
2018-09-10T22:26:34.664Z,35.33
2018-09-10T22:29:07.037Z,26.82
2018-09-10T22:31:39.469Z,30.25
2018-09-10T22:34:12.739Z,29.23
2018-09-10T22:36:45.551Z,81.57
2018-09-10T22:39:17.970Z,36.27
2018-09-10T22:41:50.451Z,44.42
2018-09-10T22:44:23.070Z,40.97
2018-09-10T22:46:55.527Z,39.50
2018-09-10T22:49:28.856Z,35.20
2018-09-10T22:52:01.355Z,29.37
2018-09-10T22:54:33.909Z,36.60
2018-09-10T22:57:06.497Z,39.90
2018-09-10T22:59:38.919Z,28.97
2018-09-10T23:02:11.437Z,34.13
2018-09-10T23:04:43.843Z,32.40
2018-09-10T23:07:16.483Z,30.47
2018-09-10T23:09:49.060Z,40.07
2018-09-10T23:12:21.503Z,36.53
2018-09-10T23:14:53.914Z,33.60
2018-09-10T23:17:26.249Z,27.03
2018-09-10T23:19:58.579Z,27.00
2018-09-10T23:22:31.658Z,24.63
2018-09-10T23:25:04.291Z,26.33
2018-09-10T23:27:36.616Z,29.43
2018-09-10T23:30:09.331Z,26.13
2018-09-10T23:32:41.742Z,25.03
2018-09-10T23:35:14.149Z,17.70
2018-09-10T23:37:46.901Z,20.87
2018-09-10T23:40:19.252Z,31.77
2018-09-10T23:42:51.776Z,43.17
2018-09-10T23:45:24.259Z,30.07
2018-09-10T23:47:56.633Z,18.30
2018-09-10T23:50:29.051Z,19.53
2018-09-10T23:53:01.424Z,28.07
2018-09-10T23:55:33.941Z,23.37
2018-09-10T23:58:06.383Z,32.70
